Aviation Digital Data Service (ADDS)

Output produced by METARs form (1211 UTC 24 February 2018)
found at http://aviationweather.gov/adds/metars/
 
EFLP 241150Z AUTO 33007KT CAVOK M15/M19 Q1035
EFLP 241120Z AUTO 33007KT 290V010 CAVOK M16/M19 Q1036
EFLP 241050Z AUTO 34007KT 310V020 CAVOK M16/M19 Q1036
EFLP 241020Z AUTO 01007KT CAVOK M16/M19 Q1036
EFLP 240950Z AUTO 02006KT 340V040 CAVOK M16/M20 Q1036
EFLP 240920Z AUTO 01006KT 340V050 CAVOK M17/M20 Q1036
EFLP 240850Z AUTO 01006KT CAVOK M17/M20 Q1036
EFLP 240820Z AUTO 02007KT CAVOK M18/M20 Q1035
EFLP 240750Z AUTO 02007KT CAVOK M18/M21 Q1035
EFLP 240720Z AUTO 01006KT CAVOK M19/M21 Q1035
EFLP 240650Z AUTO 36006KT CAVOK M19/M21 Q1035
EFLP 240620Z AUTO 36006KT CAVOK M20/M22 Q1035
EFLP 240550Z AUTO 36005KT 340V040 CAVOK M20/M22 Q1035
EFLP 240520Z AUTO 36006KT 330V040 CAVOK M19/M22 Q1035
EFLP 240450Z AUTO 35006KT CAVOK M19/M21 Q1034
EFLP 240420Z AUTO 35005KT CAVOK M19/M21 Q1034
EFLP 240350Z AUTO 35005KT 320V020 CAVOK M19/M21 Q1034
EFLP 240320Z AUTO 34005KT CAVOK M19/M21 Q1034
EFLP 240250Z AUTO 35005KT CAVOK M19/M21 Q1033
EFLP 240220Z AUTO 35003KT CAVOK M19/M21 Q1033
EFLP 240150Z AUTO 34004KT CAVOK M18/M20 Q1033
EFLP 240120Z AUTO 34005KT 310V010 CAVOK M18/M20 Q1033
EFLP 240050Z AUTO 36005KT CAVOK M17/M19 Q1033
EFLP 240020Z AUTO 34005KT CAVOK M17/M19 Q1033
EFLP 232350Z AUTO 36005KT 340V040 CAVOK M17/M19 Q1033
EFLP 232320Z AUTO 36006KT 9999 -SHUP SKC M17/M19 Q1033
EFLP 232250Z AUTO 36006KT CAVOK M16/M18 Q1032
EFLP 232220Z AUTO 36006KT CAVOK M16/M18 Q1032
EFLP 232150Z AUTO 35006KT 9999 -SHSN SKC M16/M18 Q1032
EFLP 232120Z AUTO 35006KT 9999 -SHSN SKC M16/M18 Q1032
EFLP 232050Z AUTO 35006KT CAVOK M16/M18 Q1031
EFLP 232020Z AUTO 36006KT CAVOK M15/M17 Q1031
EFLP 231950Z AUTO 35005KT CAVOK M15/M17 Q1031
EFLP 231920Z AUTO 36006KT CAVOK M15/M17 Q1031
EFLP 231850Z AUTO 36007KT CAVOK M14/M17 Q1030
EFLP 231820Z AUTO 36006KT 340V060 CAVOK M14/M17 Q1030
EFLP 231750Z AUTO 36005KT 340V040 9999 FEW029 M14/M16 Q1030
EFLP 231720Z AUTO 35004KT 310V020 9999 FEW035 M14/M16 Q1030
EFLP 231650Z AUTO 34003KT CAVOK M14/M16 Q1030
EFLP 231620Z AUTO 35005KT CAVOK M13/M16 Q1029
EFLP 231550Z AUTO 35005KT CAVOK M13/M16 Q1029
EFLP 231520Z AUTO 36006KT CAVOK M12/M16 Q1029
EFLP 231450Z AUTO 36005KT CAVOK M12/M16 Q1029
EFLP 231420Z AUTO 01005KT CAVOK M11/M15 Q1028
EFLP 231350Z AUTO 01006KT CAVOK M11/M15 Q1028
EFLP 231320Z AUTO 01006KT CAVOK M11/M15 Q1028
EFLP 231250Z AUTO 01005KT CAVOK M11/M15 Q1028
EFLP 231220Z AUTO 02005KT 340V040 CAVOK M11/M15 Q1028
EFLP 231150Z AUTO 02006KT CAVOK M12/M16 Q1028
EFLP 231120Z AUTO 01006KT CAVOK M12/M16 Q1028
EFLP 231050Z AUTO 01006KT CAVOK M13/M16 Q1028
EFLP 231020Z AUTO 01006KT CAVOK M13/M16 Q1027
EFLP 230950Z AUTO 01006KT CAVOK M13/M16 Q1027
EFLP 230920Z AUTO 02006KT 340V040 CAVOK M14/M16 Q1027
EFLP 230850Z AUTO 01006KT 9999 -SN SKC M14/M16 Q1027
EFLP 230820Z AUTO 36005KT 340V040 9999 -SN FEW040 M14/M16 Q1027
EFLP 230750Z AUTO 01004KT 330V040 5000 -SN OVC018 M14/M16 Q1027
EFLP 230720Z AUTO 35002KT 1600 -SN OVC020 M14/M16 Q1026
EFLP 230650Z AUTO 36004KT 340V050 6000 -SN BKN014 M15/M17 Q1026
EFLP 230620Z AUTO 01004KT 9999 -SN FEW016 M16/M18 Q1026
EFLP 230550Z AUTO 36002KT 3800 -SN BKN016 M16/M18 Q1026
EFLP 230520Z AUTO 35002KT 4300 -SN OVC020 M14/M16 Q1026
EFLP 230450Z AUTO 35003KT 3200 -S
EFLP 230420Z AUTO 33004KT 8000 -SHSN OVC036 M14/M15 Q1026
EFLP 230350Z AUTO 33002KT 9999 -SN OVC036 M14/M15 Q1026
EFLP 230320Z AUTO 28001KT 9999 -SN BKN035 M14/M16 Q1026
EFLP 230250Z AUTO 00000KT 1900 -SHSN BKN036 M15/M16 Q1026
EFLP 230220Z AUTO 29001KT 9999 -SHSN FEW037 BKN068 M15/M17 Q1026
EFLP 230150Z AUTO 27001KT 9999 -SN FEW021 M14/M15 Q1026
EFLP 230120Z AUTO 31002KT 6000 -SN OVC028 M13/M15 Q1026
EFLP 230050Z AUTO 31002KT 6000 -SN SCT026 OVC049 M12/M14 Q1026
EFLP 230020Z AUTO 30003KT 2800 -SN OVC027 M12/M14 Q1026